Time;durP1;ratioP1;P1;durP2;ratioP2;P2;SDS_P1;SDS_P2;PMS_P1;PMS_P2;Temp;Humidity;BMP_temperature;BMP_pressure;BME280_temperature;BME280_humidity;BME280_pressure;Samples;Min_cycle;Max_cycle;Signal;HPM_P1;HPM_P2
2022/08/07 00:00:56;;;;;;;1.92;0.50;;;20.30;66.70;;;;;;5052862;28;20388;-76
2022/08/07 00:03:23;;;;;;;1.60;0.60;;;20.20;66.50;;;;;;5053128;28;20025;-76
2022/08/07 00:05:51;;;;;;;0.85;0.32;;;20.20;66.50;;;;;;5054824;28;20064;-76
2022/08/07 00:08:17;;;;;;;2.15;0.82;;;20.10;66.80;;;;;;5057283;28;20075;-76
2022/08/07 00:10:44;;;;;;;2.78;0.73;;;20.10;66.60;;;;;;5056942;28;20487;-76
2022/08/07 00:13:10;;;;;;;0.93;0.43;;;19.90;67.50;;;;;;5057059;28;20033;-76
2022/08/07 00:15:36;;;;;;;2.45;0.68;;;19.90;67.10;;;;;;5057245;28;20388;-76
2022/08/07 00:18:02;;;;;;;1.48;0.63;;;19.90;67.40;;;;;;5056865;28;20032;-76
2022/08/07 00:20:28;;;;;;;1.85;0.60;;;19.90;67.60;;;;;;5056723;28;20452;-76
2022/08/07 00:22:54;;;;;;;2.25;0.60;;;19.90;67.60;;;;;;5056852;28;20070;-76
2022/08/07 00:25:19;;;;;;;1.48;0.43;;;20.00;68.40;;;;;;5056281;28;20408;-76
2022/08/07 00:27:45;;;;;;;1.35;0.77;;;20.10;67.80;;;;;;5056909;28;20151;-76
2022/08/07 00:30:11;;;;;;;2.65;0.50;;;20.10;67.20;;;;;;5056836;28;20037;-76
2022/08/07 00:32:37;;;;;;;2.85;0.80;;;20.00;67.10;;;;;;5056634;28;20032;-76
2022/08/07 00:35:03;;;;;;;3.38;0.90;;;20.10;67.20;;;;;;5056806;28;20025;-76
2022/08/07 00:37:28;;;;;;;1.40;0.75;;;20.00;66.80;;;;;;5056359;28;20032;-76
2022/08/07 00:39:54;;;;;;;3.22;0.93;;;20.00;67.00;;;;;;5056378;28;20064;-76
2022/08/07 00:42:20;;;;;;;1.73;0.60;;;20.00;67.00;;;;;;5056707;28;20029;-76
2022/08/07 00:44:46;;;;;;;2.47;0.60;;;20.00;67.00;;;;;;5056675;28;20389;-76
2022/08/07 00:47:12;;;;;;;1.58;0.90;;;20.10;67.20;;;;;;5056158;28;20029;-76
2022/08/07 00:49:37;;;;;;;1.88;1.20;;;20.10;67.20;;;;;;5056211;28;20048;-76
2022/08/07 00:52:07;;;;;;;1.52;0.93;;;20.10;66.90;;;;;;5056508;28;20029;-76
2022/08/07 00:54:33;;;;;;;2.15;1.23;;;20.10;66.90;;;;;;5056216;28;20025;-76
2022/08/07 00:56:58;;;;;;;2.90;1.33;;;20.10;66.50;;;;;;5056084;28;20376;-76
2022/08/07 00:59:24;;;;;;;2.42;1.35;;;20.10;66.60;;;;;;5056113;28;20033;-76
2022/08/07 01:01:50;;;;;;;2.80;1.40;;;20.00;66.60;;;;;;5056127;28;20108;-76
2022/08/07 01:04:16;;;;;;;2.30;1.25;;;19.90;66.80;;;;;;5056194;28;20080;-76
2022/08/07 01:06:43;;;;;;;1.75;1.05;;;19.90;66.80;;;;;;5056192;28;20037;-76
2022/08/07 01:09:09;;;;;;;3.08;1.33;;;19.80;66.90;;;;;;5056234;28;20017;-76
2022/08/07 01:11:35;;;;;;;3.35;1.23;;;19.80;67.20;;;;;;5056189;28;20021;-76
2022/08/07 01:14:01;;;;;;;2.28;1.17;;;19.80;67.00;;;;;;5055969;28;20406;-76
2022/08/07 01:16:27;;;;;;;1.88;1.35;;;19.80;67.30;;;;;;5055766;28;20116;-76
2022/08/07 01:18:53;;;;;;;1.60;1.00;;;19.70;67.40;;;;;;5055779;28;20499;-76
2022/08/07 01:21:23;;;;;;;2.25;1.38;;;19.80;67.60;;;;;;5055553;28;20120;-76
2022/08/07 01:23:48;;;;;;;1.80;1.00;;;19.90;67.50;;;;;;5055448;28;20480;-76
2022/08/07 01:26:16;;;;;;;2.67;1.70;;;19.90;67.60;;;;;;5055391;28;20040;-76
2022/08/07 01:28:50;;;;;;;2.85;1.98;;;19.90;67.10;;;;;;5055566;28;20119;-76
2022/08/07 01:31:16;;;;;;;4.28;1.80;;;19.90;66.70;;;;;;5055842;28;20100;-76
2022/08/07 01:33:42;;;;;;;2.78;2.03;;;19.70;67.00;;;;;;5055489;28;20029;-76
2022/08/07 01:36:10;;;;;;;4.65;2.00;;;19.50;67.30;;;;;;5055162;28;20051;-76
2022/08/07 01:38:37;;;;;;;2.72;1.90;;;19.50;67.50;;;;;;5055678;28;20063;-76
2022/08/07 01:41:05;;;;;;;1.98;1.70;;;19.40;67.60;;;;;;5055360;28;20021;-76
2022/08/07 01:43:32;;;;;;;3.40;2.03;;;19.30;67.70;;;;;;5055516;28;20029;-76
2022/08/07 01:45:58;;;;;;;2.95;1.95;;;19.30;68.00;;;;;;5055294;28;20033;-76
2022/08/07 01:48:25;;;;;;;1.90;1.50;;;19.20;68.30;;;;;;5055051;28;20104;-75
2022/08/07 01:51:03;;;;;;;3.08;1.67;;;19.20;68.50;;;;;;5055506;28;20048;-76
2022/08/07 01:53:31;;;;;;;3.78;1.73;;;19.30;68.60;;;;;;5055229;28;20435;-76
2022/08/07 01:56:10;;;;;;;1.45;1.33;;;19.30;68.40;;;;;;5055408;28;20025;-76
2022/08/07 01:58:48;;;;;;;2.53;1.70;;;19.40;68.20;;;;;;5055032;28;20025;-75
2022/08/07 02:01:22;;;;;;;2.53;1.70;;;19.30;68.00;;;;;;5055098;28;20028;-75
2022/08/07 02:03:59;;;;;;;6.32;1.40;;;19.30;68.20;;;;;;5055211;28;20029;-76
2022/08/07 02:06:29;;;;;;;4.13;1.65;;;19.30;68.60;;;;;;5054789;28;20040;-76
2022/08/07 02:08:55;;;;;;;1.90;1.67;;;19.40;68.60;;;;;;5054523;28;20025;-76
2022/08/07 02:11:21;;;;;;;2.75;1.77;;;19.30;67.80;;;;;;5054605;28;20461;-76
2022/08/07 02:13:48;;;;;;;2.17;1.85;;;19.20;68.10;;;;;;5054886;28;20036;-76
2022/08/07 02:16:16;;;;;;;4.38;1.85;;;19.10;68.30;;;;;;5054832;28;20090;-76
2022/08/07 02:18:43;;;;;;;2.65;2.03;;;19.00;68.80;;;;;;5054699;28;20029;-76
2022/08/07 02:21:09;;;;;;;5.75;2.42;;;19.00;68.80;;;;;;5054561;28;20378;-76
2022/08/07 02:23:38;;;;;;;3.33;2.00;;;18.90;69.20;;;;;;5054275;28;20047;-75
2022/08/07 02:26:06;;;;;;;4.28;2.78;;;18.90;69.50;;;;;;5054736;28;20029;-76
2022/08/07 02:28:35;;;;;;;2.97;2.22;;;18.80;69.30;;;;;;5054166;28;20029;-76
2022/08/07 02:31:02;;;;;;;3.03;2.30;;;18.60;69.50;;;;;;5054115;28;20090;-76
2022/08/07 02:33:32;;;;;;;4.70;2.78;;;18.50;70.00;;;;;;5054402;28;20033;-76
2022/08/07 02:35:59;;;;;;;3.90;2.58;;;18.30;70.50;;;;;;5054526;28;20036;-74
2022/08/07 02:38:28;;;;;;;5.18;2.65;;;18.20;71.00;;;;;;5053903;28;20036;-75
2022/08/07 02:40:55;;;;;;;3.80;2.50;;;18.20;71.10;;;;;;5054414;28;20029;-75
2022/08/07 02:43:22;;;;;;;3.83;2.28;;;18.00;71.40;;;;;;5054417;28;20028;-75
2022/08/07 02:45:50;;;;;;;3.42;2.53;;;17.70;72.40;;;;;;5053963;28;20467;-75
2022/08/07 02:48:15;;;;;;;3.55;2.88;;;17.50;72.90;;;;;;5053746;28;20021;-74
2022/08/07 02:50:46;;;;;;;2.97;2.70;;;17.50;73.20;;;;;;5053889;28;20027;-74
2022/08/07 02:53:17;;;;;;;2.97;2.15;;;17.50;73.30;;;;;;5054176;28;20111;-74
2022/08/07 02:55:46;;;;;;;4.82;2.78;;;17.50;73.60;;;;;;5053637;28;20021;-75
2022/08/07 02:58:17;;;;;;;4.00;2.72;;;17.60;73.60;;;;;;5054188;28;20029;-75
2022/08/07 03:00:44;;;;;;;4.78;2.85;;;17.50;73.40;;;;;;5054156;28;20047;-75
2022/08/07 03:03:10;;;;;;;3.97;2.45;;;17.50;73.40;;;;;;5053797;28;20079;-74
2022/08/07 03:05:36;;;;;;;3.50;3.13;;;17.40;73.70;;;;;;5053330;28;20112;-75
2022/08/07 03:08:04;;;;;;;5.43;3.00;;;17.30;74.00;;;;;;5053952;28;20029;-75
2022/08/07 03:10:31;;;;;;;6.68;3.30;;;17.20;74.40;;;;;;5053836;28;20027;-75
2022/08/07 03:12:57;;;;;;;4.82;3.40;;;17.10;74.70;;;;;;5053567;28;20033;-75
2022/08/07 03:15:23;;;;;;;4.55;3.10;;;17.00;75.20;;;;;;5053634;28;20033;-74
2022/08/07 03:17:49;;;;;;;3.88;2.50;;;17.00;75.60;;;;;;5053597;28;20388;-75
2022/08/07 03:20:15;;;;;;;4.50;2.85;;;17.20;75.50;;;;;;5053319;28;20032;-75
2022/08/07 03:22:43;;;;;;;3.47;3.03;;;17.20;75.00;;;;;;5053769;28;20064;-75
2022/08/07 03:25:09;;;;;;;3.83;3.13;;;17.30;75.00;;;;;;5053135;28;20121;-75
2022/08/07 03:27:35;;;;;;;4.93;3.00;;;17.40;74.60;;;;;;5053430;28;20170;-75
2022/08/07 03:30:01;;;;;;;4.35;3.40;;;17.50;74.60;;;;;;5053388;28;20154;-75
2022/08/07 03:32:32;;;;;;;3.50;3.20;;;17.50;74.20;;;;;;5053373;28;20051;-75
2022/08/07 03:35:01;;;;;;;3.03;2.67;;;17.50;74.20;;;;;;5053310;28;20021;-75
2022/08/07 03:37:30;;;;;;;3.55;2.65;;;17.50;74.40;;;;;;5053205;28;20029;-74
2022/08/07 03:39:57;;;;;;;4.55;3.22;;;17.60;74.50;;;;;;5052060;28;20032;-75
2022/08/07 03:42:23;;;;;;;4.00;3.33;;;17.70;74.70;;;;;;5053176;28;20029;-75
2022/08/07 03:44:49;;;;;;;4.38;3.22;;;17.60;73.80;;;;;;5053195;28;20117;-75
2022/08/07 03:47:15;;;;;;;4.95;4.13;;;17.70;74.20;;;;;;5053130;28;20060;-75
2022/08/07 03:49:44;;;;;;;5.38;3.03;;;17.70;73.90;;;;;;5052880;28;20524;-75
2022/08/07 03:52:11;;;;;;;2.58;2.30;;;17.70;74.20;;;;;;5053327;28;20106;-75
2022/08/07 03:54:37;;;;;;;4.88;4.05;;;17.80;74.30;;;;;;5053352;28;20047;-75
2022/08/07 03:57:05;;;;;;;5.85;3.80;;;17.90;73.60;;;;;;5053109;28;20464;-75
2022/08/07 03:59:31;;;;;;;4.32;3.92;;;18.00;73.60;;;;;;5053135;28;20029;-74
2022/08/07 04:01:58;;;;;;;4.40;2.80;;;18.00;73.20;;;;;;5052817;28;20044;-75
2022/08/07 04:04:24;;;;;;;5.53;3.80;;;18.00;73.70;;;;;;5053050;28;20049;-75
2022/08/07 04:06:51;;;;;;;6.00;4.53;;;18.00;73.30;;;;;;5053081;28;20068;-76
2022/08/07 04:09:17;;;;;;;5.00;3.28;;;18.10;72.90;;;;;;5053214;28;20033;-76
2022/08/07 04:11:46;;;;;;;6.03;4.70;;;18.00;73.10;;;;;;5052972;28;20384;-75
2022/08/07 04:14:12;;;;;;;4.40;4.00;;;17.90;72.90;;;;;;5053183;28;20029;-74
2022/08/07 04:16:38;;;;;;;6.88;4.10;;;17.80;73.30;;;;;;5053175;28;20486;-74
2022/08/07 04:19:04;;;;;;;6.43;4.70;;;17.80;73.40;;;;;;5053125;28;20025;-75
2022/08/07 04:21:31;;;;;;;4.75;3.78;;;17.90;73.30;;;;;;5052734;28;20040;-75
2022/08/07 04:23:56;;;;;;;5.47;4.35;;;17.80;73.50;;;;;;5052572;28;20048;-75
2022/08/07 04:26:22;;;;;;;5.13;3.67;;;17.80;73.40;;;;;;5052666;28;20029;-75
2022/08/07 04:28:48;;;;;;;3.75;3.42;;;17.90;73.90;;;;;;5052677;28;20025;-75
2022/08/07 04:31:15;;;;;;;5.57;4.18;;;17.90;73.60;;;;;;5052510;28;20159;-75
2022/08/07 04:33:41;;;;;;;7.15;4.53;;;17.90;73.70;;;;;;5052995;28;20025;-75
2022/08/07 04:36:07;;;;;;;4.95;4.43;;;17.90;73.40;;;;;;5053108;28;20036;-75
2022/08/07 04:38:34;;;;;;;5.20;3.83;;;18.00;73.20;;;;;;5052884;28;20076;-75
2022/08/07 04:41:00;;;;;;;5.90;4.82;;;18.00;73.50;;;;;;5052837;28;20029;-75
2022/08/07 04:43:31;;;;;;;7.25;4.40;;;17.90;73.20;;;;;;5052591;28;20435;-75
2022/08/07 04:46:10;;;;;;;5.05;4.53;;;18.00;73.10;;;;;;5052558;28;20372;-75
2022/08/07 04:48:41;;;;;;;4.57;4.13;;;18.00;73.10;;;;;;5052767;28;20304;-75
2022/08/07 04:51:53;;;;;;;5.30;4.47;;;18.10;73.00;;;;;;5053472;28;20021;-75
2022/08/07 04:54:44;;;;;;;5.97;4.45;;;18.10;72.70;;;;;;5050925;28;20116;-75
2022/08/07 04:57:25;;;;;;;4.90;4.40;;;17.90;73.10;;;;;;5056249;28;20122;-75
2022/08/07 05:00:25;;;;;;;3.55;3.25;;;18.00;73.40;;;;;;5056190;28;20021;-75
2022/08/07 05:03:04;;;;;;;4.53;3.83;;;18.10;73.70;;;;;;5055816;28;20488;-75
2022/08/07 05:05:39;;;;;;;6.97;4.70;;;18.20;73.40;;;;;;5056346;28;20041;-75
2022/08/07 05:08:18;;;;;;;6.70;4.47;;;18.30;72.80;;;;;;5056284;28;20104;-75
2022/08/07 05:10:50;;;;;;;4.30;3.88;;;18.30;72.60;;;;;;5055965;28;20032;-75
2022/08/07 05:13:19;;;;;;;5.35;4.32;;;18.30;72.80;;;;;;5056028;28;20504;-75
2022/08/07 05:15:49;;;;;;;9.85;4.72;;;18.40;72.90;;;;;;5056150;28;20033;-75
2022/08/07 05:18:22;;;;;;;4.22;3.28;;;18.30;72.40;;;;;;5056463;28;20048;-75
2022/08/07 05:20:53;;;;;;;8.43;4.40;;;18.30;73.10;;;;;;5055853;28;20025;-75
2022/08/07 05:23:24;;;;;;;5.88;4.97;;;18.30;73.00;;;;;;5055633;28;20103;-75
2022/08/07 05:25:51;;;;;;;5.97;4.80;;;18.30;72.80;;;;;;5055927;28;20147;-75
2022/08/07 05:28:18;;;;;;;7.57;5.80;;;18.20;73.50;;;;;;5055953;28;20451;-75
2022/08/07 05:30:45;;;;;;;7.72;4.65;;;18.10;73.10;;;;;;5055614;28;20025;-75
2022/08/07 05:33:12;;;;;;;5.75;4.60;;;18.00;73.50;;;;;;5055475;28;20029;-75
2022/08/07 05:35:38;;;;;;;6.47;4.15;;;18.10;74.10;;;;;;5055819;28;20063;-75
2022/08/07 05:38:05;;;;;;;5.20;4.07;;;18.20;73.50;;;;;;5055564;28;20384;-75
2022/08/07 05:40:33;;;;;;;4.50;4.10;;;18.30;73.30;;;;;;5055440;28;20116;-75
2022/08/07 05:42:59;;;;;;;3.53;3.22;;;18.40;73.10;;;;;;5055520;28;20037;-75
2022/08/07 05:45:26;;;;;;;3.60;3.30;;;18.50;73.00;;;;;;5055658;28;20025;-75
2022/08/07 05:47:53;;;;;;;5.13;4.10;;;18.60;73.10;;;;;;5055148;28;20025;-75
2022/08/07 05:50:20;;;;;;;5.53;4.50;;;18.70;73.40;;;;;;5055213;28;20029;-75
2022/08/07 05:52:45;;;;;;;6.35;5.03;;;18.80;72.50;;;;;;5055298;28;20036;-75
2022/08/07 05:55:11;;;;;;;5.88;4.65;;;18.80;72.10;;;;;;5055408;28;20021;-75
2022/08/07 05:57:39;;;;;;;5.22;4.13;;;18.80;72.40;;;;;;5055388;28;20013;-75
2022/08/07 06:00:06;;;;;;;7.53;5.43;;;18.90;72.40;;;;;;5055071;28;20033;-75
2022/08/07 06:02:35;;;;;;;6.57;4.95;;;18.90;72.30;;;;;;5054304;28;20384;-75
2022/08/07 06:05:07;;;;;;;8.25;4.80;;;18.90;72.30;;;;;;5055016;28;20499;-75
2022/08/07 06:07:34;;;;;;;4.50;4.07;;;19.00;72.30;;;;;;5055160;28;20033;-75
2022/08/07 06:10:00;;;;;;;5.10;4.30;;;19.10;72.30;;;;;;5055223;28;20083;-75
2022/08/07 06:12:28;;;;;;;7.25;4.72;;;19.10;72.30;;;;;;5054738;28;20040;-75
2022/08/07 06:14:54;;;;;;;7.10;5.00;;;19.20;72.20;;;;;;5055162;28;20020;-75
2022/08/07 06:17:20;;;;;;;6.88;4.50;;;19.20;72.30;;;;;;5054822;28;20017;-75
2022/08/07 06:19:47;;;;;;;6.90;5.10;;;19.20;72.50;;;;;;5054981;28;20037;-75
2022/08/07 06:22:15;;;;;;;6.85;4.72;;;19.10;72.80;;;;;;5054994;28;20041;-75
2022/08/07 06:24:41;;;;;;;6.97;4.75;;;19.00;73.10;;;;;;5054263;28;20500;-75
2022/08/07 06:27:09;;;;;;;5.68;4.55;;;19.10;73.10;;;;;;5054823;28;20173;-75
2022/08/07 06:29:35;;;;;;;7.78;4.70;;;19.20;73.00;;;;;;5054882;28;20027;-75
2022/08/07 06:32:01;;;;;;;6.75;3.72;;;19.20;72.80;;;;;;5054490;28;20029;-76
2022/08/07 06:34:27;;;;;;;5.47;4.72;;;19.40;72.80;;;;;;5054651;28;20031;-75
2022/08/07 06:36:53;;;;;;;5.88;4.30;;;19.50;72.70;;;;;;5054724;28;20029;-75
2022/08/07 06:39:20;;;;;;;6.38;4.25;;;19.50;72.60;;;;;;5054375;28;20025;-75
2022/08/07 06:41:50;;;;;;;6.78;4.43;;;19.60;72.50;;;;;;5054229;28;20025;-75
2022/08/07 06:44:18;;;;;;;4.47;3.88;;;19.60;72.70;;;;;;5054269;28;20028;-75
2022/08/07 06:46:44;;;;;;;5.72;3.65;;;19.70;72.70;;;;;;5054368;28;20033;-75
2022/08/07 06:49:09;;;;;;;11.25;4.70;;;19.80;72.50;;;;;;5053982;28;20036;-75
2022/08/07 06:51:37;;;;;;;4.68;3.85;;;19.90;72.20;;;;;;5054342;28;20024;-75
2022/08/07 06:54:04;;;;;;;6.55;4.38;;;19.90;71.90;;;;;;5054070;28;20033;-75
2022/08/07 06:56:45;;;;;;;6.75;4.18;;;19.80;72.40;;;;;;5054132;28;20063;-75
2022/08/07 06:59:15;;;;;;;8.07;4.35;;;19.80;72.80;;;;;;5053938;28;20480;-75
2022/08/07 07:01:42;;;;;;;9.85;4.32;;;19.80;72.30;;;;;;5054132;28;20033;-75
2022/08/07 07:04:08;;;;;;;5.75;4.50;;;19.90;72.50;;;;;;5053867;28;20527;-75
2022/08/07 07:06:34;;;;;;;8.50;4.72;;;19.80;72.30;;;;;;5053625;28;20076;-75
2022/08/07 07:09:23;;;;;;;7.22;5.10;;;19.90;72.70;;;;;;5054063;28;20049;-75
2022/08/07 07:12:04;;;;;;;5.45;4.10;;;20.00;72.60;;;;;;5053744;28;20021;-75
2022/08/07 07:14:36;;;;;;;6.10;3.88;;;20.00;72.50;;;;;;5053583;28;20376;-75
2022/08/07 07:17:09;;;;;;;5.88;4.32;;;20.10;72.40;;;;;;5053635;28;20369;-75
2022/08/07 07:19:42;;;;;;;6.20;4.07;;;20.30;72.60;;;;;;5053557;28;20033;-75
2022/08/07 07:22:09;;;;;;;6.70;4.05;;;20.30;71.40;;;;;;5053860;28;20039;-75
2022/08/07 07:24:35;;;;;;;5.20;3.42;;;20.30;71.50;;;;;;5053524;28;20111;-75
2022/08/07 07:27:03;;;;;;;4.25;3.13;;;20.40;71.90;;;;;;5053493;28;20029;-75
2022/08/07 07:29:35;;;;;;;4.80;3.13;;;20.50;71.90;;;;;;5053323;28;20024;-75
2022/08/07 07:32:04;;;;;;;7.40;3.00;;;20.50;70.00;;;;;;5053817;28;20032;-75
2022/08/07 07:34:32;;;;;;;4.45;2.65;;;20.60;69.80;;;;;;5053633;28;20024;-75
2022/08/07 07:37:03;;;;;;;6.20;3.35;;;20.60;69.80;;;;;;5053668;28;20079;-75
2022/08/07 07:39:31;;;;;;;4.55;3.10;;;20.80;69.40;;;;;;5053196;28;20025;-75
2022/08/07 07:42:00;;;;;;;4.78;3.00;;;20.70;69.90;;;;;;5053148;28;20070;-76
2022/08/07 07:44:27;;;;;;;6.43;3.60;;;20.90;69.30;;;;;;5053344;28;20025;-75
2022/08/07 07:46:55;;;;;;;2.78;2.20;;;21.00;69.50;;;;;;5053010;28;20033;-75
2022/08/07 07:49:23;;;;;;;4.75;2.60;;;21.10;69.70;;;;;;5053226;28;20029;-75
2022/08/07 07:51:51;;;;;;;3.33;2.80;;;21.30;68.60;;;;;;5053124;28;20022;-75
2022/08/07 07:54:18;;;;;;;7.38;2.80;;;21.50;67.60;;;;;;5053273;28;20021;-76
2022/08/07 07:56:45;;;;;;;3.22;2.30;;;21.70;67.10;;;;;;5053165;28;20096;-75
2022/08/07 07:59:12;;;;;;;3.70;2.60;;;21.80;67.00;;;;;;5053378;28;20032;-75
2022/08/07 08:01:44;;;;;;;4.47;2.20;;;22.00;66.40;;;;;;5053285;28;20422;-75
2022/08/07 08:04:11;;;;;;;4.03;2.38;;;22.00;65.50;;;;;;5053045;28;20017;-75
2022/08/07 08:06:42;;;;;;;2.47;1.63;;;22.10;64.60;;;;;;5053020;28;20044;-75
2022/08/07 08:09:08;;;;;;;4.88;2.00;;;22.20;64.40;;;;;;5053012;28;20422;-75
2022/08/07 08:11:35;;;;;;;4.47;1.88;;;22.30;64.60;;;;;;5053293;28;20104;-75
2022/08/07 08:14:01;;;;;;;2.88;1.73;;;22.40;63.00;;;;;;5053043;28;20021;-76
2022/08/07 08:16:33;;;;;;;4.35;1.60;;;22.40;62.80;;;;;;5052918;28;20523;-76
2022/08/07 08:19:00;;;;;;;2.88;1.80;;;22.40;62.80;;;;;;5053232;28;20029;-77
2022/08/07 08:27:10;;;;;;;1.98;1.10;;;22.50;62.60;;;;;;5054834;28;20439;-76
2022/08/07 08:29:54;;;;;;;3.72;1.00;;;22.60;61.70;;;;;;5057056;28;20037;-76
2022/08/07 08:32:23;;;;;;;2.50;0.98;;;22.70;62.20;;;;;;5056680;28;20039;-76
2022/08/07 08:34:51;;;;;;;2.22;0.90;;;22.80;61.20;;;;;;5056652;28;20035;-76
2022/08/07 08:37:18;;;;;;;2.53;1.02;;;22.90;60.70;;;;;;5056652;28;20465;-76
2022/08/07 08:39:44;;;;;;;2.47;0.98;;;23.00;60.90;;;;;;5056688;28;20075;-76
2022/08/07 08:42:36;;;;;;;2.17;1.08;;;23.10;60.60;;;;;;5056772;28;20431;-76
2022/08/07 08:45:12;;;;;;;2.67;1.20;;;23.10;58.80;;;;;;5056203;28;20110;-76
2022/08/07 08:47:58;;;;;;;3.72;1.40;;;23.00;59.70;;;;;;5056582;28;20047;-76
2022/08/07 08:50:32;;;;;;;3.35;1.30;;;22.90;60.00;;;;;;5056615;28;20024;-76
2022/08/07 08:53:21;;;;;;;3.53;1.05;;;23.10;59.50;;;;;;5056513;28;20027;-76
2022/08/07 08:55:55;;;;;;;2.95;1.00;;;23.30;59.10;;;;;;5056117;28;20393;-76
2022/08/07 08:58:47;;;;;;;3.38;1.13;;;23.30;58.20;;;;;;5056632;28;20392;-76
2022/08/07 09:01:23;;;;;;;;;;;23.50;58.70;;;;;;5056485;28;20036;-76
2022/08/07 09:04:05;;;;;;;2.47;0.95;;;23.50;57.80;;;;;;5055734;28;19911;-76
2022/08/07 09:06:47;;;;;;;2.67;0.80;;;23.30;58.40;;;;;;5055915;28;20507;-76
2022/08/07 09:09:46;;;;;;;2.50;1.00;;;23.20;57.80;;;;;;5056340;28;20025;-76
2022/08/07 09:12:28;;;;;;;2.78;0.77;;;23.40;56.90;;;;;;5055895;28;20506;-76
2022/08/07 09:15:21;;;;;;;1.33;0.50;;;23.50;56.80;;;;;;5055915;28;20388;-76
2022/08/07 09:18:25;;;;;;;1.30;0.77;;;23.60;55.60;;;;;;5055803;28;20112;-76
2022/08/07 09:21:09;;;;;;;1.85;0.60;;;23.50;57.20;;;;;;5044721;28;20345;-75
2022/08/07 09:23:49;;;;;;;2.22;0.95;;;23.60;57.60;;;;;;5055728;28;20037;-76
2022/08/07 09:26:48;;;;;;;1.42;0.50;;;23.90;57.10;;;;;;5055400;28;20037;-76
2022/08/07 09:29:22;;;;;;;2.05;0.95;;;24.10;56.10;;;;;;5055959;28;20167;-76
2022/08/07 09:32:26;;;;;;;3.05;1.10;;;24.30;55.40;;;;;;5055858;28;20024;-75
2022/08/07 09:35:13;;;;;;;3.67;0.73;;;24.50;54.60;;;;;;5055842;28;20021;-76
2022/08/07 09:37:50;;;;;;;1.92;0.70;;;24.60;54.20;;;;;;5054534;28;20096;-76
2022/08/07 09:40:23;;;;;;;2.70;1.00;;;24.60;54.40;;;;;;5055607;28;20032;-76
2022/08/07 09:42:55;;;;;;;1.60;0.80;;;24.70;54.80;;;;;;5055610;28;20054;-75
2022/08/07 09:45:39;;;;;;;3.45;1.00;;;24.80;54.10;;;;;;5055433;28;20464;-76
2022/08/07 09:48:32;;;;;;;4.70;1.27;;;24.80;53.50;;;;;;5055329;28;20091;-75
2022/08/07 09:51:28;;;;;;;1.63;0.80;;;24.70;53.00;;;;;;5055453;28;20028;-76
2022/08/07 09:53:58;;;;;;;2.42;0.85;;;24.70;52.70;;;;;;5055094;28;20037;-76
2022/08/07 09:56:59;;;;;;;2.10;0.93;;;24.80;54.30;;;;;;5055556;28;20021;-76
2022/08/07 09:59:45;;;;;;;2.45;0.77;;;25.00;53.40;;;;;;5042878;28;20069;-75
2022/08/07 10:02:42;;;;;;;1.65;0.60;;;25.00;52.40;;;;;;5054993;28;20380;-75
2022/08/07 10:05:43;;;;;;;2.83;0.57;;;25.20;51.60;;;;;;5055186;28;20041;-76
2022/08/07 10:08:11;;;;;;;2.55;0.60;;;25.40;51.60;;;;;;5054906;28;20036;-77
2022/08/07 10:11:14;;;;;;;1.17;0.75;;;25.50;51.50;;;;;;5054826;28;20081;-76
2022/08/07 10:14:11;;;;;;;1.75;1.05;;;25.60;50.60;;;;;;5054565;28;20383;-76
2022/08/07 10:17:05;;;;;;;3.60;1.10;;;25.70;50.00;;;;;;5054616;28;20021;-76
2022/08/07 10:19:51;;;;;;;1.98;0.90;;;25.60;49.40;;;;;;5055020;28;20040;-76
2022/08/07 10:22:56;;;;;;;1.40;0.70;;;25.40;50.10;;;;;;5054667;28;20021;-76
2022/08/07 10:25:39;;;;;;;3.75;0.73;;;25.50;50.40;;;;;;5054324;28;20049;-76
2022/08/07 10:28:26;;;;;;;3.50;0.80;;;25.70;51.00;;;;;;5054873;28;20396;-76
2022/08/07 10:31:23;;;;;;;2.10;0.70;;;25.90;49.80;;;;;;5054847;28;20377;-77
2022/08/07 10:33:56;;;;;;;2.22;1.20;;;26.00;50.00;;;;;;5054355;28;20025;-76
2022/08/07 10:36:49;;;;;;;1.92;1.02;;;26.00;49.60;;;;;;5054449;28;20048;-76
2022/08/07 10:39:52;;;;;;;2.28;1.25;;;26.00;50.10;;;;;;5054290;28;20027;-76
2022/08/07 10:42:25;;;;;;;2.17;0.98;;;26.10;49.00;;;;;;5054545;28;20071;-77
2022/08/07 10:44:59;;;;;;;;;;;26.10;48.50;;;;;;5054868;28;20107;-76
2022/08/07 10:47:53;;;;;;;1.90;1.10;;;26.20;48.60;;;;;;5053927;28;19920;-77
2022/08/07 10:50:42;;;;;;;3.08;0.88;;;26.30;48.50;;;;;;5053628;28;20024;-77
2022/08/07 10:53:39;;;;;;;3.13;1.20;;;26.30;48.60;;;;;;5054368;28;20063;-77
2022/08/07 10:56:26;;;;;;;2.97;1.20;;;26.20;50.00;;;;;;5041959;28;20108;-77
2022/08/07 10:59:13;;;;;;;2.45;1.23;;;26.30;48.70;;;;;;5054381;28;20025;-77
2022/08/07 11:02:10;;;;;;;2.95;1.30;;;26.40;48.60;;;;;;5053732;28;20025;-78
2022/08/07 11:05:00;;;;;;;2.72;1.00;;;26.40;49.50;;;;;;5053719;28;20025;-77
2022/08/07 11:07:53;;;;;;;1.38;1.00;;;26.60;48.90;;;;;;5054004;28;20044;-77
2022/08/07 11:10:26;;;;;;;2.25;1.20;;;26.80;48.50;;;;;;5054115;28;20094;-77
2022/08/07 11:13:00;;;;;;;1.73;0.88;;;26.80;48.70;;;;;;5054021;28;20044;-77
2022/08/07 11:15:30;;;;;;;3.30;1.20;;;26.90;48.10;;;;;;5053746;28;20029;-77
2022/08/07 11:18:04;;;;;;;1.98;1.02;;;26.90;47.70;;;;;;5053883;28;20110;-77
2022/08/07 11:20:47;;;;;;;3.50;1.40;;;26.80;47.90;;;;;;5053809;28;20040;-77
2022/08/07 11:23:34;;;;;;;1.92;1.35;;;26.70;48.00;;;;;;5053038;28;20032;-76
2022/08/07 11:26:39;;;;;;;2.85;1.63;;;26.40;49.00;;;;;;5053755;28;20044;-77
2022/08/07 11:29:12;;;;;;;3.33;1.33;;;25.70;49.30;;;;;;5053486;28;20104;-77
2022/08/07 11:31:45;;;;;;;1.23;1.05;;;25.50;50.10;;;;;;5053232;28;20488;-78
2022/08/07 11:34:23;;;;;;;1.30;1.17;;;25.40;50.10;;;;;;5053451;28;20086;-77
2022/08/07 11:37:30;;;;;;;1.10;0.93;;;25.40;50.00;;;;;;5053639;28;20033;-77
2022/08/07 11:40:21;;;;;;;3.67;1.17;;;25.60;50.40;;;;;;5044192;28;20040;-77
2022/08/07 11:42:57;;;;;;;1.67;1.13;;;25.90;51.80;;;;;;5053423;28;20078;-77
2022/08/07 11:45:37;;;;;;;2.47;1.02;;;26.20;50.60;;;;;;5053278;28;20017;-77
2022/08/07 11:48:16;;;;;;;2.08;1.00;;;26.50;49.60;;;;;;5053194;28;20029;-77
2022/08/07 11:51:16;;;;;;;1.08;0.80;;;26.80;48.60;;;;;;5052882;28;20021;-77
2022/08/07 11:54:06;;;;;;;1.70;1.20;;;27.10;48.40;;;;;;5053120;28;20028;-77
2022/08/07 11:57:08;;;;;;;3.00;0.98;;;27.20;47.20;;;;;;5053253;28;20032;-77
2022/08/07 12:00:10;;;;;;;1.60;0.93;;;27.20;47.20;;;;;;5053336;28;20035;-77
2022/08/07 12:03:09;;;;;;;3.13;1.35;;;27.00;46.70;;;;;;5052656;28;20384;-77
2022/08/07 12:05:52;;;;;;;1.30;1.00;;;26.70;47.10;;;;;;5053297;28;20139;-77
2022/08/07 12:08:33;;;;;;;2.45;1.15;;;26.50;47.80;;;;;;5053284;28;20112;-77
2022/08/07 12:11:02;;;;;;;3.80;1.00;;;26.40;48.80;;;;;;5053126;28;20021;-77
2022/08/07 12:13:47;;;;;;;1.58;1.23;;;26.50;49.30;;;;;;5052488;28;20021;-77
2022/08/07 12:16:20;;;;;;;2.67;1.20;;;26.60;48.50;;;;;;5052909;28;20040;-77
2022/08/07 12:18:56;;;;;;;2.65;1.10;;;26.90;49.20;;;;;;5052921;28;20611;-77
2022/08/07 12:21:39;;;;;;;2.30;1.17;;;27.20;47.60;;;;;;5053257;28;20064;-77
2022/08/07 12:25:51;;;;;;;2.67;1.10;;;27.30;47.20;;;;;;5052340;28;20060;-77
2022/08/07 12:27:31;;;;;;;2.30;1.35;;;27.40;46.70;;;;;;5052235;28;20132;-77
2022/08/07 12:30:06;;;;;;;1.67;0.90;;;27.40;47.10;;;;;;5052996;28;20105;-77
2022/08/07 12:32:59;;;;;;;1.70;1.10;;;27.40;46.90;;;;;;5053017;28;20025;-77
2022/08/07 12:35:27;;;;;;;1.65;0.90;;;27.40;48.10;;;;;;5052627;28;20036;-77
2022/08/07 12:37:54;;;;;;;1.67;1.35;;;27.60;47.60;;;;;;5053031;28;20029;-77
2022/08/07 12:40:23;;;;;;;1.80;1.35;;;27.80;46.80;;;;;;5052573;28;20025;-77
2022/08/07 12:42:54;;;;;;;1.77;0.98;;;27.90;45.70;;;;;;5052354;28;20078;-77
2022/08/07 12:45:25;;;;;;;2.58;1.10;;;28.00;45.90;;;;;;5052729;28;20075;-77
2022/08/07 12:47:50;;;;;;;1.35;0.90;;;28.00;45.40;;;;;;5052434;28;20033;-77
2022/08/07 12:50:35;;;;;;;1.98;1.20;;;28.00;45.20;;;;;;5052852;28;20028;-77
2022/08/07 12:53:17;;;;;;;1.27;0.80;;;27.90;45.00;;;;;;5052641;28;20187;-77
2022/08/07 12:55:54;;;;;;;1.33;0.90;;;27.70;45.50;;;;;;5052537;28;20036;-77
2022/08/07 12:58:20;;;;;;;2.88;0.82;;;27.60;46.30;;;;;;5052756;28;20444;-77
2022/08/07 13:01:04;;;;;;;2.80;1.27;;;27.70;46.50;;;;;;5052608;28;20025;-77
2022/08/07 13:03:32;;;;;;;1.75;0.90;;;27.80;46.50;;;;;;5052309;28;20480;-77
2022/08/07 13:06:19;;;;;;;1.00;0.80;;;27.90;46.50;;;;;;5052109;28;20032;-77
2022/08/07 13:09:12;;;;;;;3.20;1.00;;;28.00;46.00;;;;;;5052727;28;20108;-77
2022/08/07 13:12:09;;;;;;;1.52;0.80;;;28.00;45.70;;;;;;5052459;28;20079;-77
2022/08/07 13:14:53;;;;;;;2.90;0.73;;;28.00;46.20;;;;;;5056093;28;20416;-77
2022/08/07 13:17:29;;;;;;;2.20;1.02;;;27.90;46.70;;;;;;5055514;28;20029;-76
2022/08/07 13:20:14;;;;;;;1.60;1.00;;;27.80;46.50;;;;;;5055761;28;20036;-77
2022/08/07 13:22:54;;;;;;;1.52;0.70;;;27.80;46.40;;;;;;5056055;28;20043;-77
2022/08/07 13:25:41;;;;;;;2.85;0.82;;;27.70;46.30;;;;;;5055594;28;20052;-77
2022/08/07 13:28:18;;;;;;;4.53;1.08;;;27.60;46.60;;;;;;5056105;28;20029;-77